Time;durP1;ratioP1;P1;durP2;ratioP2;P2;SDS_P1;SDS_P2;PMS_P1;PMS_P2;Temp;Humidity;BMP_temperature;BMP_pressure;BME280_temperature;BME280_humidity;BME280_pressure;Samples;Min_cycle;Max_cycle;Signal;HPM_P1;HPM_P2
2021/05/17 00:00:13;;;;;;;8.55;4.72;;;8.40;99.90;;;9.82;96.13;99082.81;5074158;28;20052;-83
2021/05/17 00:02:43;;;;;;;6.72;4.28;;;8.40;99.90;;;9.83;95.98;99089.97;5073875;28;20306;-86
2021/05/17 00:05:11;;;;;;;5.57;3.10;;;8.40;99.90;;;9.83;95.95;99075.22;5058296;28;20044;-87
2021/05/17 00:07:37;;;;;;;5.32;3.72;;;8.40;99.90;;;9.82;95.92;99077.25;5077501;28;20114;-86
2021/05/17 00:10:09;;;;;;;5.40;3.67;;;8.40;99.90;;;9.82;96.05;99082.81;5086615;28;20077;-85
2021/05/17 00:12:36;;;;;;;7.10;3.67;;;8.50;99.90;;;9.83;96.07;99078.81;5093734;28;20031;-84
2021/05/17 00:15:11;;;;;;;8.25;3.75;;;8.50;99.90;;;9.83;96.06;99084.38;5093933;28;20039;-85
2021/05/17 00:17:40;;;;;;;7.70;3.60;;;8.50;99.90;;;9.87;95.83;99084.41;5077648;28;20051;-83
2021/05/17 00:20:11;;;;;;;4.43;3.30;;;8.50;99.90;;;9.89;95.53;99085.63;5093928;28;20106;-84
2021/05/17 00:22:38;;;;;;;8.27;3.78;;;8.50;99.90;;;9.88;95.38;99083.22;5076055;28;20028;-85
2021/05/17 00:25:05;;;;;;;6.32;3.25;;;8.50;99.90;;;9.93;95.27;99083.66;5075402;28;20024;-85
2021/05/17 00:27:31;;;;;;;7.43;3.85;;;8.50;99.90;;;9.95;94.99;99086.81;5080856;28;20051;-84
2021/05/17 00:29:57;;;;;;;5.03;3.15;;;8.60;99.90;;;10.00;94.85;99083.69;5072318;28;20025;-83
2021/05/17 00:32:24;;;;;;;5.97;3.40;;;8.60;99.90;;;10.03;94.64;99091.25;5072671;28;20506;-85
2021/05/17 00:34:50;;;;;;;4.63;3.10;;;8.60;99.90;;;10.07;94.46;99082.91;5072567;28;20034;-84
2021/05/17 00:37:16;;;;;;;3.55;2.97;;;8.60;99.90;;;10.07;94.72;99092.09;5072466;28;20064;-84
2021/05/17 00:39:43;;;;;;;7.35;3.58;;;8.60;99.90;;;10.04;94.69;99092.88;5055440;28;20032;-83
2021/05/17 00:42:10;;;;;;;9.95;3.75;;;8.60;99.90;;;10.07;94.10;99089.28;5074031;28;20058;-81
2021/05/17 00:44:41;;;;;;;4.82;3.15;;;8.60;99.90;;;10.14;94.55;99091.34;5073549;28;20060;-84
2021/05/17 00:47:16;;;;;;;4.30;2.70;;;8.60;99.90;;;10.04;94.40;99103.22;5073922;28;20028;-82
2021/05/17 00:49:45;;;;;;;6.00;3.30;;;8.70;99.90;;;10.18;93.92;99091.38;5072779;28;20024;-86
2021/05/17 00:52:14;;;;;;;4.55;2.78;;;8.80;99.90;;;10.19;93.48;99090.16;5072859;28;20267;-84
2021/05/17 00:54:41;;;;;;;4.55;3.00;;;8.80;99.90;;;10.23;93.50;99085.38;5072235;28;20025;-83
2021/05/17 00:57:08;;;;;;;4.82;2.63;;;8.80;99.90;;;10.24;92.53;99084.97;5073154;28;20024;-81
2021/05/17 00:59:35;;;;;;;4.22;2.50;;;8.90;99.90;;;10.19;93.11;99085.38;5073923;28;20119;-86
2021/05/17 01:02:04;;;;;;;5.03;2.67;;;8.90;99.90;;;10.25;92.59;99094.16;5080592;28;20035;-83
2021/05/17 01:04:30;;;;;;;4.22;2.42;;;8.90;99.90;;;10.20;92.75;99091.75;5093281;28;20020;-79
2021/05/17 01:07:00;;;;;;;5.72;2.08;;;8.90;99.90;;;10.27;92.34;99086.22;5087827;28;20522;-85
2021/05/17 01:09:28;;;;;;;3.67;2.65;;;9.00;99.90;;;10.26;92.35;99095.75;5054870;28;20031;-82
2021/05/17 01:11:58;;;;;;;5.50;2.47;;;9.00;99.90;;;10.15;92.15;99092.94;5073305;28;20094;-84
2021/05/17 01:14:25;;;;;;;4.72;2.22;;;9.00;99.90;;;10.21;91.98;99093.38;5071689;28;20074;-82
2021/05/17 01:16:54;;;;;;;4.65;2.20;;;9.00;99.90;;;10.19;92.08;99098.53;5054760;28;20471;-85
2021/05/17 01:19:51;;;;;;;4.93;2.05;;;9.00;99.90;;;10.19;92.10;99099.31;5054989;28;20086;-82
2021/05/17 01:22:34;;;;;;;5.45;1.67;;;9.00;99.90;;;10.21;92.21;99093.38;5074012;28;20377;-83
2021/05/17 01:25:00;;;;;;;1.95;1.70;;;9.00;99.90;;;10.36;91.30;99104.19;5075968;28;20147;-86
2021/05/17 01:27:27;;;;;;;3.30;1.73;;;9.10;99.90;;;10.32;91.55;99099.75;5078406;28;20039;-85
2021/05/17 01:29:53;;;;;;;5.78;2.30;;;9.10;99.90;;;10.24;91.81;99101.72;5082393;28;20115;-82
2021/05/17 01:32:19;;;;;;;5.68;1.48;;;9.10;99.90;;;10.30;91.36;99097.38;5091402;28;20051;-85
2021/05/17 01:34:45;;;;;;;2.90;1.52;;;9.10;99.90;;;10.34;91.59;99097.41;5093402;28;20063;-84
2021/05/17 01:37:14;;;;;;;5.80;1.77;;;9.10;99.90;;;10.25;92.05;99102.53;5079192;28;20028;-80
2021/05/17 01:39:42;;;;;;;4.43;1.75;;;9.10;99.90;;;10.35;91.44;99101.78;5077124;28;20082;-83
2021/05/17 01:42:10;;;;;;;5.15;1.95;;;9.10;99.90;;;10.27;91.53;99097.38;5078004;28;20088;-83
2021/05/17 01:44:42;;;;;;;4.10;1.60;;;9.10;99.90;;;10.33;91.12;99102.19;5094494;28;20025;-82
2021/05/17 01:47:16;;;;;;;3.38;1.70;;;9.10;99.90;;;10.29;90.65;99101.34;5076886;28;20092;-85
2021/05/17 01:49:45;;;;;;;3.88;1.92;;;9.10;99.90;;;10.19;91.28;99106.88;5082362;28;20024;-84
2021/05/17 01:52:14;;;;;;;5.15;1.70;;;9.10;99.90;;;10.27;91.45;99100.97;5094023;28;20028;-84
2021/05/17 01:54:43;;;;;;;4.95;2.25;;;9.10;99.90;;;10.30;91.36;99116.91;5096047;28;20059;-81
2021/05/17 01:57:09;;;;;;;3.95;1.85;;;9.10;99.90;;;10.33;91.07;99110.56;5095053;28;20020;-86
2021/05/17 01:59:36;;;;;;;5.55;2.00;;;9.10;99.90;;;10.36;90.93;99114.53;5093358;28;20033;-82
2021/05/17 02:02:03;;;;;;;4.13;1.88;;;9.10;99.90;;;10.34;91.23;99108.56;5075335;28;20036;-82
2021/05/17 02:04:29;;;;;;;3.08;2.03;;;9.10;99.90;;;10.36;91.10;99120.13;5093073;28;20025;-85
2021/05/17 02:06:55;;;;;;;4.53;1.83;;;9.10;99.90;;;10.27;91.38;99122.47;5088308;28;20417;-84
2021/05/17 02:09:26;;;;;;;2.47;1.75;;;9.20;99.90;;;10.36;91.54;99117.31;5084073;28;20066;-81
2021/05/17 02:11:53;;;;;;;4.03;2.05;;;9.10;99.90;;;10.35;91.77;99116.53;5110531;28;20020;-81
2021/05/17 02:14:22;;;;;;;3.72;2.00;;;9.20;99.90;;;10.26;92.66;99110.53;5115901;28;20009;-79
2021/05/17 02:16:50;;;;;;;7.10;2.40;;;9.10;99.90;;;10.44;91.81;99124.50;5115787;28;20040;-84
2021/05/17 02:19:24;;;;;;;6.20;2.30;;;9.10;99.90;;;10.32;92.08;99108.13;5114220;28;20172;-83
2021/05/17 02:21:51;;;;;;;6.88;2.33;;;9.20;99.90;;;10.27;92.84;99106.53;5114461;28;20024;-81
2021/05/17 02:24:18;;;;;;;3.55;1.92;;;9.20;99.90;;;10.38;92.36;99118.53;5094765;28;20038;-87
2021/05/17 02:26:45;;;;;;;3.83;2.33;;;9.20;99.90;;;10.41;92.29;99119.72;5098894;28;20146;-86
2021/05/17 02:29:13;;;;;;;4.90;2.42;;;9.20;99.90;;;10.38;92.92;99120.50;5112458;28;20020;-83
2021/05/17 02:31:39;;;;;;;4.68;2.00;;;9.30;99.90;;;10.45;92.62;99126.94;5113239;28;20414;-85
2021/05/17 02:34:06;;;;;;;3.92;2.20;;;9.20;99.90;;;10.47;92.20;99120.94;5112853;28;20028;-83
2021/05/17 02:36:33;;;;;;;6.20;2.75;;;9.20;99.90;;;10.43;93.41;99120.16;5113708;28;20092;-81
2021/05/17 02:38:59;;;;;;;6.57;3.15;;;9.20;99.90;;;10.44;93.20;99125.31;5095328;28;20054;-83
2021/05/17 02:41:29;;;;;;;4.60;2.45;;;9.20;99.90;;;10.46;92.94;99124.94;5113970;28;20056;-86
2021/05/17 02:43:55;;;;;;;4.63;2.65;;;9.20;99.90;;;10.41;93.31;99122.50;5112606;28;20043;-82
2021/05/17 02:46:22;;;;;;;5.07;2.05;;;9.20;99.90;;;10.46;93.65;99127.72;5110281;28;20160;-82
2021/05/17 02:48:50;;;;;;;4.50;2.30;;;9.20;99.90;;;10.41;93.33;99128.91;5106778;28;20124;-81
2021/05/17 02:51:16;;;;;;;5.43;2.50;;;9.20;99.90;;;10.34;93.82;99131.66;5099393;28;20028;-85
2021/05/17 02:53:50;;;;;;;4.47;2.65;;;9.30;99.90;;;10.54;93.00;99130.13;5097471;28;20024;-84
2021/05/17 02:56:33;;;;;;;7.05;2.65;;;9.30;99.90;;;10.43;94.09;99126.53;5095852;28;20028;-79
2021/05/17 02:59:04;;;;;;;3.95;2.67;;;9.20;99.90;;;10.49;93.32;99132.53;5079759;28;20055;-84
2021/05/17 03:01:41;;;;;;;6.80;2.70;;;9.20;99.90;;;10.44;93.95;99130.91;5098429;28;20024;-81
2021/05/17 03:04:15;;;;;;;8.57;3.15;;;9.20;99.90;;;10.49;93.88;99126.94;5096610;28;20028;-83
2021/05/17 03:07:06;;;;;;;5.70;3.00;;;9.20;99.90;;;10.39;94.69;99130.50;5095701;28;20024;-83
2021/05/17 03:09:37;;;;;;;8.70;3.45;;;9.20;99.90;;;10.46;93.85;99124.94;5086815;28;20369;-82
2021/05/17 03:12:08;;;;;;;5.22;3.15;;;9.10;99.90;;;10.40;94.68;99129.31;5058962;28;20032;-80
2021/05/17 03:14:39;;;;;;;7.45;3.70;;;9.20;99.90;;;10.48;94.41;99128.13;5077817;28;20035;-83
2021/05/17 03:17:09;;;;;;;4.93;3.53;;;9.20;99.90;;;10.46;94.67;99131.31;5060685;28;20421;-84
2021/05/17 03:19:38;;;;;;;5.63;3.42;;;9.20;99.90;;;10.53;94.43;99122.19;5079615;28;20025;-83
2021/05/17 03:22:05;;;;;;;8.30;3.60;;;9.10;99.90;;;10.53;94.20;99131.31;5086786;28;20025;-81
2021/05/17 03:24:39;;;;;;;7.18;3.50;;;9.20;99.90;;;10.44;94.01;99130.09;5095053;28;20055;-79
2021/05/17 03:27:26;;;;;;;6.82;3.33;;;9.20;99.90;;;10.58;93.72;99125.38;5064958;28;20373;-82
2021/05/17 03:29:53;;;;;;;6.72;3.45;;;9.10;99.90;;;10.58;93.84;99128.16;5075187;28;20115;-81
2021/05/17 03:32:20;;;;;;;5.38;3.65;;;9.20;99.90;;;10.49;94.38;99122.16;5073825;28;20033;-84
2021/05/17 03:34:46;;;;;;;9.70;3.35;;;9.20;99.90;;;10.57;94.11;99139.72;5075917;28;20047;-84
2021/05/17 03:37:12;;;;;;;6.95;4.85;;;9.20;99.90;;;10.59;93.76;99137.34;5074665;28;20448;-83
2021/05/17 03:39:38;;;;;;;5.45;3.78;;;9.20;99.90;;;10.57;93.65;99134.13;5059515;28;20037;-82
2021/05/17 03:42:05;;;;;;;5.50;3.63;;;9.20;99.90;;;10.57;93.98;99132.16;5057902;28;20025;-83
2021/05/17 03:44:31;;;;;;;6.95;3.80;;;9.20;99.90;;;10.52;94.08;99140.09;5076804;28;20033;-84
2021/05/17 03:46:57;;;;;;;8.35;4.03;;;9.20;99.90;;;10.51;94.14;99139.31;5074631;28;20388;-84
2021/05/17 03:49:23;;;;;;;5.82;4.25;;;9.20;99.90;;;10.54;94.23;99143.28;5075587;28;20029;-82
2021/05/17 03:51:49;;;;;;;7.03;4.07;;;9.20;99.90;;;10.52;94.18;99140.09;5073750;28;20059;-82
2021/05/17 03:54:15;;;;;;;9.77;4.28;;;9.20;99.90;;;10.57;94.26;99146.09;5057889;28;20036;-83
2021/05/17 03:56:40;;;;;;;8.27;4.70;;;9.20;99.90;;;10.44;94.45;99149.63;5078019;28;20090;-83
2021/05/17 03:59:06;;;;;;;10.35;4.07;;;9.30;99.90;;;10.48;94.45;99147.66;5076078;28;20025;-84
2021/05/17 04:01:32;;;;;;;9.25;4.80;;;9.30;99.90;;;10.59;94.12;99142.94;5076208;28;20024;-82
2021/05/17 04:03:59;;;;;;;7.63;5.07;;;9.30;99.90;;;10.64;93.90;99150.09;5075650;28;20384;-83
2021/05/17 04:14:22;;;;;;;8.23;4.70;;;9.40;99.90;;;10.67;94.40;99160.47;5095408;28;20116;-87
2021/05/17 04:16:47;;;;;;;7.88;4.80;;;9.40;99.90;;;10.75;94.57;99159.31;5068790;28;20033;-84
2021/05/17 04:19:13;;;;;;;7.75;4.32;;;9.40;99.90;;;10.72;94.68;99162.91;5086524;28;20107;-84
2021/05/17 04:21:40;;;;;;;7.85;4.80;;;9.40;99.90;;;10.71;94.52;99162.09;5078539;28;20024;-82
2021/05/17 04:24:08;;;;;;;7.13;3.95;;;9.40;99.90;;;10.67;94.50;99161.28;5074474;28;20418;-81
2021/05/17 04:26:33;;;;;;;7.13;3.53;;;9.50;99.90;;;10.72;94.25;99160.13;5074594;28;20024;-83
2021/05/17 04:28:59;;;;;;;6.43;4.10;;;9.40;99.90;;;10.78;94.34;99152.94;5056534;28;20036;-86
2021/05/17 04:31:25;;;;;;;7.28;4.03;;;9.50;99.90;;;10.58;95.11;99161.66;5072886;28;20341;-82
2021/05/17 04:33:54;;;;;;;7.60;4.00;;;9.50;99.90;;;10.79;94.34;99157.34;5057042;28;20114;-82
2021/05/17 04:36:20;;;;;;;5.30;3.90;;;9.40;99.90;;;10.68;94.41;99162.88;5057023;28;20032;-83
2021/05/17 04:38:46;;;;;;;7.22;3.92;;;9.40;99.90;;;10.81;94.29;99166.13;5072971;28;20387;-83
2021/05/17 04:41:12;;;;;;;10.05;4.43;;;9.50;99.90;;;10.84;94.29;99168.13;5073513;28;20024;-81
2021/05/17 04:43:38;;;;;;;8.13;3.75;;;9.50;99.90;;;10.97;93.60;99170.16;5074744;28;20059;-82
2021/05/17 04:46:04;;;;;;;7.10;4.10;;;9.60;99.90;;;11.02;93.31;99172.53;5073300;28;20430;-81
2021/05/17 04:48:30;;;;;;;4.80;4.00;;;9.60;99.90;;;11.15;93.10;99166.56;5056616;28;20028;-82
2021/05/17 04:50:55;;;;;;;7.03;4.20;;;9.70;99.90;;;11.16;93.20;99163.38;5056911;28;20082;-82
2021/05/17 04:53:21;;;;;;;10.18;4.15;;;9.80;99.90;;;11.14;93.41;99173.38;5057383;28;20354;-82
2021/05/17 04:55:47;;;;;;;7.80;3.88;;;9.90;99.90;;;11.32;92.08;99172.19;5057737;28;20115;-84
2021/05/17 04:58:13;;;;;;;6.82;4.03;;;10.00;99.90;;;11.30;92.63;99168.97;5057492;28;20032;-83
2021/05/17 05:00:39;;;;;;;7.68;3.90;;;10.00;99.90;;;11.31;93.20;99170.56;5056926;28;20409;-83
2021/05/17 05:03:05;;;;;;;9.15;4.00;;;10.00;99.90;;;11.37;92.18;99173.75;5057350;28;20131;-82
2021/05/17 05:05:31;;;;;;;9.63;3.92;;;10.00;99.90;;;11.31;92.74;99170.56;5075470;28;20040;-84
2021/05/17 05:07:56;;;;;;;7.60;3.97;;;10.10;99.90;;;11.47;92.24;99179.34;5076256;28;20120;-81
2021/05/17 05:10:22;;;;;;;7.88;3.60;;;10.10;99.90;;;11.51;92.10;99176.56;5075832;28;20036;-81
2021/05/17 05:12:49;;;;;;;11.70;4.63;;;10.20;99.90;;;11.50;92.20;99172.16;5076705;28;20031;-84
2021/05/17 05:15:15;;;;;;;4.28;3.25;;;10.20;99.90;;;11.61;91.40;99184.16;5075737;28;20025;-82
2021/05/17 05:17:42;;;;;;;7.60;3.35;;;10.30;99.90;;;11.68;91.71;99175.75;5059823;28;20032;-83
2021/05/17 05:20:09;;;;;;;7.90;3.33;;;10.30;99.90;;;11.59;91.86;99176.16;5077095;28;20113;-82
2021/05/17 05:22:35;;;;;;;7.45;3.15;;;10.30;99.90;;;11.54;92.51;99179.38;5059086;28;20114;-80
2021/05/17 05:25:02;;;;;;;4.20;3.15;;;10.40;99.90;;;11.52;92.56;99178.16;5066121;28;20048;-82
2021/05/17 05:28:10;;;;;;;5.13;3.25;;;10.40;99.90;;;11.60;91.61;99177.75;5065834;28;20123;-84
2021/05/17 05:33:06;;;;;;;6.03;3.60;;;10.40;99.90;;;11.33;92.90;99172.97;5074287;28;20554;-85
2021/05/17 05:35:33;;;;;;;5.82;3.25;;;10.40;99.90;;;11.33;93.55;99173.78;5056656;28;20395;-85
2021/05/17 05:38:02;;;;;;;9.48;3.83;;;10.30;99.90;;;11.34;92.43;99171.75;5056754;28;20032;-84
2021/05/17 05:40:28;;;;;;;7.40;2.92;;;10.20;99.90;;;11.24;93.60;99178.16;5074133;28;20028;-84
2021/05/17 05:42:55;;;;;;;7.03;3.22;;;10.20;99.90;;;11.29;94.09;99175.78;5077079;28;20029;-84
2021/05/17 05:47:49;;;;;;;8.02;4.00;;;10.30;99.90;;;11.73;93.49;99175.38;5056630;28;20099;-84
2021/05/17 05:50:15;;;;;;;6.50;3.25;;;10.50;99.90;;;11.90;92.77;99188.56;5038454;28;20029;-85
2021/05/17 05:52:40;;;;;;;8.00;3.20;;;10.60;99.90;;;12.06;92.37;99188.91;5056910;28;20029;-85
2021/05/17 05:55:08;;;;;;;8.73;3.70;;;10.70;99.90;;;12.14;90.94;99184.88;5039088;28;20175;-85
2021/05/17 05:57:53;;;;;;;7.93;2.95;;;10.80;99.90;;;12.06;90.79;99186.13;5056729;28;20056;-84
2021/05/17 06:00:20;;;;;;;6.95;2.80;;;10.80;99.90;;;12.09;90.05;99182.50;5056492;28;20040;-84
2021/05/17 06:02:46;;;;;;;8.27;3.30;;;10.80;99.90;;;12.01;90.94;99196.91;5040362;28;20059;-82
2021/05/17 06:05:12;;;;;;;4.65;2.80;;;10.80;99.90;;;11.97;91.86;99193.34;5040983;28;20387;-85
2021/05/17 06:07:38;;;;;;;7.53;3.25;;;10.70;99.90;;;11.97;91.69;99190.53;5040749;28;20029;-85
2021/05/17 06:10:07;;;;;;;6.80;2.70;;;10.70;99.90;;;12.15;90.84;99189.28;5057906;28;20092;-85
2021/05/17 06:12:33;;;;;;;4.95;2.58;;;10.80;99.90;;;12.09;90.55;99196.50;5085349;28;20028;-84
2021/05/17 06:15:03;;;;;;;7.15;2.60;;;10.90;99.90;;;12.60;89.91;99192.34;5080619;28;20040;-84
2021/05/17 06:17:29;;;;;;;6.82;3.20;;;11.10;99.90;;;12.62;88.71;99209.53;5079053;28;20038;-83
2021/05/17 06:19:56;;;;;;;5.50;2.58;;;11.30;99.90;;;12.67;90.31;99209.91;5078128;28;20028;-85
2021/05/17 06:22:26;;;;;;;6.40;2.45;;;11.40;99.90;;;12.89;88.52;99205.00;5080043;28;20055;-86
2021/05/17 06:24:54;;;;;;;9.95;2.85;;;11.50;99.90;;;12.76;87.43;99211.47;5061164;28;20025;-83
2021/05/17 06:27:21;;;;;;;3.67;2.30;;;11.50;99.90;;;13.03;87.27;99218.94;5079276;28;20048;-85
2021/05/17 06:29:47;;;;;;;5.53;2.28;;;11.70;99.90;;;12.95;87.77;99211.78;5062271;28;20029;-83
2021/05/17 06:32:15;;;;;;;9.93;2.50;;;11.60;99.90;;;12.90;86.66;99211.41;5079743;28;20119;-83
2021/05/17 06:34:48;;;;;;;5.00;2.10;;;11.60;99.90;;;13.02;86.92;99216.53;5080145;28;20074;-83
2021/05/17 06:37:14;;;;;;;4.03;2.78;;;11.60;99.90;;;13.00;87.33;99219.72;5080104;28;20104;-84
2021/05/17 06:39:40;;;;;;;6.15;2.65;;;11.70;99.90;;;12.65;87.54;99209.50;5080850;28;20498;-83
2021/05/17 06:42:08;;;;;;;6.00;2.30;;;11.60;99.90;;;12.39;88.86;99209.22;5062642;28;20170;-84
2021/05/17 06:44:34;;;;;;;6.63;2.22;;;11.40;99.90;;;12.53;88.51;99215.56;5082088;28;20093;-85
2021/05/17 06:47:01;;;;;;;7.60;2.38;;;11.40;99.90;;;12.35;88.88;99214.84;5064375;28;20040;-83
2021/05/17 06:49:29;;;;;;;7.68;2.78;;;11.30;99.90;;;12.57;89.15;99223.97;5065505;28;20399;-83
2021/05/17 06:51:56;;;;;;;5.75;2.20;;;11.40;99.90;;;12.77;88.10;99221.47;5082484;28;20047;-84
2021/05/17 06:54:26;;;;;;;6.68;2.03;;;11.50;99.90;;;13.11;87.17;99226.13;5081078;28;20028;-81
2021/05/17 06:57:10;;;;;;;5.97;2.25;;;11.70;99.90;;;13.14;87.38;99230.91;5082683;28;20440;-84
2021/05/17 06:59:47;;;;;;;4.07;2.03;;;11.90;99.90;;;13.28;85.13;99218.00;5064631;28;20029;-84
2021/05/17 07:02:22;;;;;;;5.25;2.00;;;12.10;99.90;;;13.51;84.80;99227.47;5081663;28;20035;-81
2021/05/17 07:04:57;;;;;;;7.05;2.20;;;12.20;99.90;;;14.04;83.21;99223.41;5080696;28;20103;-84
2021/05/17 07:11:33;;;;;;;7.35;2.08;;;12.50;99.90;;;14.26;81.61;99217.16;5079780;28;20028;-85
2021/05/17 07:12:59;;;;;;;5.88;1.60;;;13.00;99.90;;;14.39;79.00;99231.50;5061169;28;20064;-82
2021/05/17 07:15:25;;;;;;;2.35;1.45;;;13.10;99.90;;;14.49;77.64;99229.78;5060522;28;20033;-85
2021/05/17 07:17:51;;;;;;;5.25;1.40;;;13.10;99.90;;;13.98;78.55;99237.09;5060365;28;20029;-86
2021/05/17 07:20:23;;;;;;;5.18;2.13;;;13.00;99.90;;;13.70;80.40;99231.72;5047155;28;20076;-85
2021/05/17 07:25:33;;;;;;;4.10;1.45;;;12.80;99.90;;;13.87;79.39;99239.19;5059114;28;20072;-84
2021/05/17 07:28:00;;;;;;;5.78;1.50;;;12.80;99.90;;;14.17;78.00;99233.69;5060125;28;20025;-83
2021/05/17 07:30:27;;;;;;;6.57;1.75;;;12.80;99.90;;;14.31;79.92;99235.56;5061714;28;20396;-84
2021/05/17 07:32:53;;;;;;;5.97;1.30;;;13.10;99.90;;;14.52;77.35;99248.59;5065736;28;20017;-85
2021/05/17 07:35:19;;;;;;;4.22;1.50;;;13.20;99.90;;;14.31;76.11;99234.78;5070150;28;20035;-82
2021/05/17 07:37:46;;;;;;;2.90;1.30;;;13.30;99.90;;;14.49;75.38;99235.41;5065243;28;20085;-86
2021/05/17 07:40:13;;;;;;;7.28;1.88;;;13.30;99.90;;;15.11;73.40;99249.09;5064319;28;20094;-84
2021/05/17 07:42:39;;;;;;;3.03;1.55;;;13.60;99.90;;;15.36;73.50;99240.28;5087437;28;20036;-84
2021/05/17 07:45:06;;;;;;;5.50;2.10;;;13.90;99.90;;;15.43;72.74;99245.81;5086049;28;20054;-85
2021/05/17 07:47:32;;;;;;;6.10;1.10;;;14.00;99.90;;;15.21;71.95;99248.94;5061367;28;20445;-84
2021/05/17 07:49:58;;;;;;;4.03;1.33;;;14.10;99.90;;;14.86;73.94;99245.81;5073708;28;20050;-85
2021/05/17 07:52:24;;;;;;;4.10;1.67;;;13.80;99.90;;;14.78;75.14;99248.69;5081497;28;20033;-84
2021/05/17 07:54:50;;;;;;;4.93;1.30;;;13.70;99.90;;;14.87;73.51;99247.38;5040997;28;20029;-83
2021/05/17 07:57:16;;;;;;;5.30;1.45;;;13.70;99.90;;;14.59;74.06;99243.72;5022790;28;20127;-84
2021/05/17 07:59:42;;;;;;;3.13;1.60;;;13.60;99.90;;;14.88;73.31;99243.34;5023199;28;20057;-84
2021/05/17 08:02:08;;;;;;;4.28;1.40;;;13.60;99.90;;;14.99;72.90;99244.84;5023417;28;20032;-84
2021/05/17 08:04:34;;;;;;;4.30;1.48;;;13.70;99.90;;;15.18;72.81;99246.97;5022813;28;20045;-82
2021/05/17 08:07:02;;;;;;;4.60;1.27;;;13.90;99.90;;;15.17;70.57;99250.22;5039277;28;20030;-85
2021/05/17 08:09:28;;;;;;;7.35;2.20;;;14.00;99.90;;;15.25;70.17;99255.28;5040095;28;20029;-84
2021/05/17 08:11:54;;;;;;;6.45;2.17;;;14.10;99.90;;;15.62;69.78;99253.59;5023534;28;20083;-86
2021/05/17 08:14:21;;;;;;;2.75;1.60;;;14.20;99.90;;;15.48;69.19;99248.97;5040567;28;20025;-84
2021/05/17 08:16:47;;;;;;;4.13;1.80;;;14.30;99.90;;;15.60;68.37;99251.22;5038980;28;20034;-83
2021/05/17 08:19:14;;;;;;;5.03;1.67;;;14.40;99.90;;;15.61;67.87;99249.19;5039619;28;20033;-84
2021/05/17 08:21:41;;;;;;;7.85;1.83;;;14.30;99.90;;;15.39;68.40;99245.06;5039031;28;20558;-83
2021/05/17 08:24:08;;;;;;;5.93;1.95;;;14.10;99.90;;;15.07;69.55;99251.13;5037825;28;20496;-84
2021/05/17 08:26:34;;;;;;;3.60;1.55;;;13.90;99.90;;;14.76;69.74;99253.94;5022446;28;20194;-83
2021/05/17 08:29:00;;;;;;;5.68;1.85;;;13.70;99.90;;;14.82;70.28;99251.47;5021696;28;20520;-84
2021/05/17 08:31:27;;;;;;;4.60;1.80;;;13.50;99.90;;;13.97;75.49;99252.31;5022448;28;20021;-82
2021/05/17 08:33:53;;;;;;;4.18;1.88;;;13.10;99.90;;;14.24;77.14;99255.28;5021126;28;20039;-85
2021/05/17 08:36:19;;;;;;;6.78;2.20;;;13.10;99.90;;;15.36;73.74;99263.59;5041946;28;20021;-82
2021/05/17 08:38:45;;;;;;;3.65;1.92;;;13.80;99.90;;;16.12;70.47;99270.47;5040286;28;20056;-85
2021/05/17 08:41:12;;;;;;;7.10;1.80;;;14.50;99.90;;;16.57;67.99;99254.75;5041059;28;20029;-86
2021/05/17 08:43:41;;;;;;;3.55;1.77;;;14.80;99.90;;;16.33;66.19;99258.81;5046553;28;20029;-84
2021/05/17 08:46:11;;;;;;;6.70;1.75;;;14.70;99.90;;;16.37;65.95;99245.47;5052738;28;20060;-86
2021/05/17 08:48:47;;;;;;;5.38;1.88;;;14.70;99.90;;;16.16;67.93;99243.84;5046945;28;20037;-79
2021/05/17 08:51:32;;;;;;;2.75;1.42;;;14.70;99.90;;;16.48;66.78;99246.06;5065143;28;20025;-83
2021/05/17 08:54:02;;;;;;;7.32;1.75;;;14.90;99.90;;;16.59;64.86;99245.88;5059739;28;20057;-84
2021/05/17 08:56:30;;;;;;;2.72;1.45;;;15.10;99.90;;;17.31;63.62;99244.75;5058705;28;20032;-84
2021/05/17 08:59:03;;;;;;;4.88;1.58;;;15.60;99.90;;;17.71;60.77;99247.50;5062559;28;20041;-82
2021/05/17 09:01:31;;;;;;;4.47;1.77;;;16.30;99.90;;;17.56;59.28;99241.41;5065871;28;20040;-84
2021/05/17 09:04:03;;;;;;;5.80;1.35;;;16.30;99.90;;;17.29;60.49;99249.25;5060212;28;20086;-83
2021/05/17 09:06:43;;;;;;;2.97;1.30;;;16.10;99.90;;;16.91;61.51;99251.69;5060301;28;20118;-83
2021/05/17 09:09:39;;;;;;;4.55;1.38;;;16.00;99.90;;;16.78;60.99;99247.91;5059266;28;20036;-83
2021/05/17 09:12:11;;;;;;;3.80;1.50;;;15.80;99.90;;;16.84;62.12;99252.63;5059525;28;20033;-83
2021/05/17 09:14:39;;;;;;;3.63;1.48;;;15.60;99.90;;;17.16;60.79;99240.66;5059442;28;20025;-83
2021/05/17 09:17:10;;;;;;;2.58;1.48;;;15.60;99.90;;;16.90;61.19;99249.28;5060939;28;20404;-83
2021/05/17 09:19:41;;;;;;;3.13;1.27;;;15.50;99.90;;;17.06;59.92;99250.16;5042013;28;20155;-82
2021/05/17 09:22:16;;;;;;;3.33;1.25;;;15.50;99.90;;;16.70;60.47;99238.00;5060938;28;20033;-83
2021/05/17 09:24:51;;;;;;;4.80;1.23;;;15.40;99.90;;;16.55;61.18;99234.69;5043063;28;20022;-81
2021/05/17 09:27:29;;;;;;;7.30;1.40;;;15.30;99.90;;;16.91;60.34;99237.59;5059764;28;20029;-84
2021/05/17 09:30:00;;;;;;;3.35;1.33;;;15.40;99.90;;;16.97;61.72;99230.19;5044222;28;20025;-83
2021/05/17 09:32:30;;;;;;;2.00;1.10;;;15.50;99.90;;;16.61;61.24;99240.59;5063772;28;20036;-84
2021/05/17 09:35:09;;;;;;;5.40;1.30;;;15.40;99.90;;;16.96;60.82;99250.34;5074558;28;20290;-84
2021/05/17 09:37:59;;;;;;;2.00;1.08;;;15.40;99.90;;;16.55;59.89;99245.97;5073395;28;20031;-85
2021/05/17 09:40:33;;;;;;;2.20;1.27;;;15.30;99.90;;;16.48;60.18;99248.88;5065850;28;20092;-84
2021/05/17 09:43:06;;;;;;;4.15;1.60;;;15.10;99.90;;;15.98;61.95;99242.56;5060375;28;20032;-85
2021/05/17 09:45:39;;;;;;;4.07;1.50;;;14.80;99.90;;;15.70;63.79;99255.88;5044056;28;20037;-82
2021/05/17 09:48:19;;;;;;;2.78;1.42;;;14.50;99.90;;;15.26;67.25;99262.53;5061821;28;20075;-83
2021/05/17 09:51:09;;;;;;;3.65;1.50;;;14.20;99.90;;;14.72;70.10;99252.38;5062317;28;20033;-82
2021/05/17 09:53:48;;;;;;;6.55;1.50;;;13.70;99.90;;;14.81;72.56;99261.09;5062216;28;20021;-82
2021/05/17 09:56:23;;;;;;;4.65;1.70;;;13.60;99.90;;;14.86;73.21;99271.91;5049090;28;20032;-82
2021/05/17 09:58:57;;;;;;;5.55;1.30;;;13.50;99.90;;;15.04;71.01;99258.41;5046388;28;20025;-83
2021/05/17 10:01:29;;;;;;;3.17;1.17;;;13.70;99.90;;;15.67;70.67;99255.91;5069043;28;20021;-82
2021/05/17 10:04:05;;;;;;;3.83;1.30;;;14.10;99.90;;;16.54;68.64;99263.25;5043336;28;20140;-85
2021/05/17 10:06:32;;;;;;;7.50;1.48;;;14.90;99.90;;;17.28;63.99;99258.94;5070985;28;20120;-82
2021/05/17 10:08:59;;;;;;;1.98;1.05;;;15.60;99.90;;;17.68;62.16;99251.19;5072418;28;20033;-82
2021/05/17 10:11:28;;;;;;;3.15;1.13;;;16.10;99.90;;;17.81;61.71;99255.72;5059899;28;20033;-81
2021/05/17 10:13:54;;;;;;;2.35;0.85;;;16.40;99.90;;;17.68;58.37;99252.00;5059120;28;20500;-83
2021/05/17 10:16:23;;;;;;;2.67;1.20;;;16.50;99.90;;;17.46;60.76;99256.53;5040863;28;20067;-82
2021/05/17 10:18:50;;;;;;;4.28;1.17;;;16.20;99.90;;;17.28;60.26;99254.09;5057489;28;20121;-83
2021/05/17 10:21:23;;;;;;;1.48;0.75;;;15.90;99.90;;;17.11;63.36;99248.84;5057166;28;20040;-82
2021/05/17 10:23:51;;;;;;;1.52;0.88;;;15.60;99.90;;;16.95;63.73;99265.72;5058235;28;20025;-83
2021/05/17 10:26:23;;;;;;;5.32;1.40;;;15.40;99.90;;;16.67;65.98;99256.59;5058668;28;20025;-81
2021/05/17 10:29:02;;;;;;;3.42;1.00;;;15.10;99.90;;;16.26;69.24;99261.78;5058363;28;20029;-83
2021/05/17 10:31:32;;;;;;;1.90;1.00;;;14.80;99.90;;;15.87;69.69;99253.19;5059535;28;20025;-81
2021/05/17 10:34:08;;;;;;;3.80;1.17;;;14.60;99.90;;;16.66;68.76;99254.22;5042222;28;20036;-83
2021/05/17 10:37:02;;;;;;;2.17;1.13;;;14.90;99.90;;;17.93;65.48;99240.09;5061656;28;20052;-84
2021/05/17 10:39:42;;;;;;;2.50;1.00;;;15.80;99.90;;;18.46;64.87;99230.22;5061965;28;20523;-83
2021/05/17 10:48:35;;;;;;;4.75;0.85;;;17.80;99.90;;;20.27;54.43;99225.47;5075907;28;20051;-83
2021/05/17 10:51:20;;;;;;;2.85;0.90;;;18.40;99.90;;;20.78;51.20;99226.03;4968836;28;20027;-83
2021/05/17 10:53:55;;;;;;;2.80;0.75;;;18.80;99.90;;;20.88;51.04;99213.50;4980723;28;20027;-85
2021/05/17 10:56:50;;;;;;;1.58;0.88;;;19.10;99.90;;;20.83;50.19;99217.75;5022257;28;20029;-86